sensor_id;sensor_type;location;lat;lon;timestamp;P1;durP1;ratioP1;P2;durP2;ratioP2
57465;SDS011;67033;44.984;20.068;2023-02-28T00:00:12;27.42;;;16.35;;
57465;SDS011;67033;44.984;20.068;2023-02-28T00:02:39;23.55;;;15.82;;
57465;SDS011;67033;44.984;20.068;2023-02-28T00:05:05;23.73;;;14.40;;
57465;SDS011;67033;44.984;20.068;2023-02-28T00:07:32;27.33;;;15.50;;
57465;SDS011;67033;44.984;20.068;2023-02-28T00:09:58;24.35;;;15.60;;
57465;SDS011;67033;44.984;20.068;2023-02-28T00:12:25;22.23;;;14.63;;
57465;SDS011;67033;44.984;20.068;2023-02-28T00:14:51;17.98;;;12.63;;
57465;SDS011;67033;44.984;20.068;2023-02-28T00:17:17;18.40;;;12.75;;
57465;SDS011;67033;44.984;20.068;2023-02-28T00:19:47;21.38;;;13.63;;
57465;SDS011;67033;44.984;20.068;2023-02-28T00:22:13;17.23;;;12.90;;
57465;SDS011;67033;44.984;20.068;2023-02-28T00:24:40;19.05;;;13.02;;
57465;SDS011;67033;44.984;20.068;2023-02-28T00:27:06;23.23;;;13.93;;
57465;SDS011;67033;44.984;20.068;2023-02-28T00:29:32;18.67;;;13.27;;
57465;SDS011;67033;44.984;20.068;2023-02-28T00:31:58;21.15;;;13.82;;
57465;SDS011;67033;44.984;20.068;2023-02-28T00:34:24;19.70;;;14.32;;
57465;SDS011;67033;44.984;20.068;2023-02-28T00:36:50;19.80;;;13.10;;
57465;SDS011;67033;44.984;20.068;2023-02-28T00:39:17;19.33;;;14.57;;
57465;SDS011;67033;44.984;20.068;2023-02-28T00:41:43;20.13;;;14.38;;
57465;SDS011;67033;44.984;20.068;2023-02-28T00:44:09;19.65;;;13.32;;
57465;SDS011;67033;44.984;20.068;2023-02-28T00:46:35;22.05;;;14.48;;
57465;SDS011;67033;44.984;20.068;2023-02-28T00:49:01;20.63;;;14.75;;
57465;SDS011;67033;44.984;20.068;2023-02-28T00:51:27;21.02;;;14.77;;
57465;SDS011;67033;44.984;20.068;2023-02-28T00:53:53;24.52;;;14.93;;
57465;SDS011;67033;44.984;20.068;2023-02-28T00:56:20;22.52;;;14.10;;
57465;SDS011;67033;44.984;20.068;2023-02-28T00:58:46;23.05;;;14.75;;
57465;SDS011;67033;44.984;20.068;2023-02-28T01:01:13;18.98;;;13.43;;
57465;SDS011;67033;44.984;20.068;2023-02-28T01:03:39;20.13;;;14.90;;
57465;SDS011;67033;44.984;20.068;2023-02-28T01:06:05;22.30;;;14.48;;
57465;SDS011;67033;44.984;20.068;2023-02-28T01:08:31;20.30;;;14.27;;
57465;SDS011;67033;44.984;20.068;2023-02-28T01:10:57;21.70;;;14.27;;
57465;SDS011;67033;44.984;20.068;2023-02-28T01:13:23;21.98;;;15.32;;
57465;SDS011;67033;44.984;20.068;2023-02-28T01:15:51;20.50;;;14.18;;
57465;SDS011;67033;44.984;20.068;2023-02-28T01:18:17;21.15;;;14.40;;
57465;SDS011;67033;44.984;20.068;2023-02-28T01:20:44;26.10;;;14.27;;
57465;SDS011;67033;44.984;20.068;2023-02-28T01:23:11;21.52;;;14.75;;
57465;SDS011;67033;44.984;20.068;2023-02-28T01:25:37;22.02;;;14.25;;
57465;SDS011;67033;44.984;20.068;2023-02-28T01:28:04;20.13;;;12.77;;
57465;SDS011;67033;44.984;20.068;2023-02-28T01:30:31;21.95;;;13.90;;
57465;SDS011;67033;44.984;20.068;2023-02-28T01:32:57;19.77;;;14.02;;
57465;SDS011;67033;44.984;20.068;2023-02-28T01:35:23;18.55;;;13.32;;
57465;SDS011;67033;44.984;20.068;2023-02-28T01:37:49;24.58;;;14.85;;
57465;SDS011;67033;44.984;20.068;2023-02-28T01:40:15;19.10;;;14.10;;
57465;SDS011;67033;44.984;20.068;2023-02-28T01:42:41;21.63;;;15.00;;
57465;SDS011;67033;44.984;20.068;2023-02-28T01:45:27;20.77;;;14.50;;
57465;SDS011;67033;44.984;20.068;2023-02-28T01:47:55;21.13;;;14.73;;
57465;SDS011;67033;44.984;20.068;2023-02-28T01:50:23;21.00;;;15.50;;
57465;SDS011;67033;44.984;20.068;2023-02-28T01:52:50;20.67;;;14.13;;
57465;SDS011;67033;44.984;20.068;2023-02-28T01:55:17;23.52;;;15.18;;
57465;SDS011;67033;44.984;20.068;2023-02-28T01:57:51;22.05;;;14.75;;
57465;SDS011;67033;44.984;20.068;2023-02-28T02:00:20;23.50;;;14.77;;
57465;SDS011;67033;44.984;20.068;2023-02-28T02:02:48;22.23;;;16.58;;
57465;SDS011;67033;44.984;20.068;2023-02-28T02:05:17;22.45;;;15.60;;
57465;SDS011;67033;44.984;20.068;2023-02-28T02:07:44;22.85;;;15.15;;
57465;SDS011;67033;44.984;20.068;2023-02-28T02:10:19;21.23;;;14.95;;
57465;SDS011;67033;44.984;20.068;2023-02-28T02:15:36;22.38;;;15.30;;
57465;SDS011;67033;44.984;20.068;2023-02-28T02:18:12;23.20;;;15.50;;
57465;SDS011;67033;44.984;20.068;2023-02-28T02:25:45;21.92;;;14.77;;
57465;SDS011;67033;44.984;20.068;2023-02-28T02:30:44;22.52;;;15.40;;
57465;SDS011;67033;44.984;20.068;2023-02-28T02:33:21;20.02;;;14.75;;
57465;SDS011;67033;44.984;20.068;2023-02-28T02:36:04;21.90;;;15.40;;
57465;SDS011;67033;44.984;20.068;2023-02-28T02:38:52;22.65;;;16.60;;
57465;SDS011;67033;44.984;20.068;2023-02-28T02:43:54;19.33;;;14.93;;
57465;SDS011;67033;44.984;20.068;2023-02-28T02:48:54;21.50;;;15.20;;
57465;SDS011;67033;44.984;20.068;2023-02-28T02:51:21;20.35;;;15.23;;
57465;SDS011;67033;44.984;20.068;2023-02-28T02:56:15;21.75;;;15.25;;
57465;SDS011;67033;44.984;20.068;2023-02-28T02:58:42;24.75;;;16.70;;
57465;SDS011;67033;44.984;20.068;2023-02-28T03:01:14;23.38;;;16.17;;
57465;SDS011;67033;44.984;20.068;2023-02-28T03:03:42;21.67;;;15.45;;
57465;SDS011;67033;44.984;20.068;2023-02-28T03:06:08;22.55;;;16.50;;
57465;SDS011;67033;44.984;20.068;2023-02-28T03:08:36;23.85;;;15.27;;
57465;SDS011;67033;44.984;20.068;2023-02-28T03:11:04;22.88;;;14.77;;
57465;SDS011;67033;44.984;20.068;2023-02-28T03:23:33;19.20;;;14.23;;
57465;SDS011;67033;44.984;20.068;2023-02-28T03:26:05;21.40;;;14.90;;
57465;SDS011;67033;44.984;20.068;2023-02-28T03:31:20;20.90;;;15.23;;
57465;SDS011;67033;44.984;20.068;2023-02-28T03:33:53;21.75;;;15.07;;
57465;SDS011;67033;44.984;20.068;2023-02-28T03:36:23;21.40;;;15.38;;
57465;SDS011;67033;44.984;20.068;2023-02-28T03:38:52;23.58;;;16.63;;
57465;SDS011;67033;44.984;20.068;2023-02-28T03:46:36;21.80;;;15.68;;
57465;SDS011;67033;44.984;20.068;2023-02-28T03:49:06;22.08;;;15.43;;
57465;SDS011;67033;44.984;20.068;2023-02-28T03:51:34;24.10;;;16.45;;
57465;SDS011;67033;44.984;20.068;2023-02-28T03:54:06;22.00;;;15.95;;
57465;SDS011;67033;44.984;20.068;2023-02-28T03:56:35;23.60;;;17.15;;
57465;SDS011;67033;44.984;20.068;2023-02-28T03:59:04;24.77;;;17.05;;
57465;SDS011;67033;44.984;20.068;2023-02-28T04:03:59;24.23;;;16.63;;
57465;SDS011;67033;44.984;20.068;2023-02-28T04:06:25;25.30;;;16.27;;
57465;SDS011;67033;44.984;20.068;2023-02-28T04:08:52;24.55;;;17.17;;
57465;SDS011;67033;44.984;20.068;2023-02-28T04:11:23;24.35;;;17.67;;
57465;SDS011;67033;44.984;20.068;2023-02-28T04:13:50;23.92;;;17.38;;
57465;SDS011;67033;44.984;20.068;2023-02-28T04:16:17;24.27;;;17.10;;
57465;SDS011;67033;44.984;20.068;2023-02-28T04:18:43;25.67;;;18.88;;
57465;SDS011;67033;44.984;20.068;2023-02-28T04:21:10;26.23;;;17.83;;
57465;SDS011;67033;44.984;20.068;2023-02-28T04:23:36;24.45;;;17.52;;
57465;SDS011;67033;44.984;20.068;2023-02-28T04:26:02;25.92;;;17.27;;
57465;SDS011;67033;44.984;20.068;2023-02-28T04:28:29;25.52;;;17.70;;
57465;SDS011;67033;44.984;20.068;2023-02-28T04:30:56;25.35;;;17.02;;
57465;SDS011;67033;44.984;20.068;2023-02-28T04:33:22;27.13;;;18.20;;
57465;SDS011;67033;44.984;20.068;2023-02-28T04:35:57;27.27;;;18.70;;
57465;SDS011;67033;44.984;20.068;2023-02-28T04:38:23;26.17;;;18.30;;
57465;SDS011;67033;44.984;20.068;2023-02-28T04:40:49;28.77;;;18.75;;
57465;SDS011;67033;44.984;20.068;2023-02-28T04:43:16;31.10;;;19.73;;
57465;SDS011;67033;44.984;20.068;2023-02-28T04:45:42;28.73;;;19.08;;
57465;SDS011;67033;44.984;20.068;2023-02-28T04:48:08;26.40;;;18.88;;
57465;SDS011;67033;44.984;20.068;2023-02-28T04:50:34;28.25;;;19.40;;
57465;SDS011;67033;44.984;20.068;2023-02-28T04:53:00;27.75;;;19.27;;
57465;SDS011;67033;44.984;20.068;2023-02-28T04:55:26;26.45;;;18.08;;
57465;SDS011;67033;44.984;20.068;2023-02-28T04:57:53;26.88;;;18.27;;
57465;SDS011;67033;44.984;20.068;2023-02-28T05:00:19;35.03;;;21.20;;
57465;SDS011;67033;44.984;20.068;2023-02-28T05:02:45;38.38;;;23.85;;
57465;SDS011;67033;44.984;20.068;2023-02-28T05:05:12;39.83;;;23.17;;
57465;SDS011;67033;44.984;20.068;2023-02-28T05:07:43;33.60;;;21.17;;
57465;SDS011;67033;44.984;20.068;2023-02-28T05:10:10;33.13;;;20.17;;
57465;SDS011;67033;44.984;20.068;2023-02-28T05:12:36;37.58;;;21.77;;
57465;SDS011;67033;44.984;20.068;2023-02-28T05:15:04;38.13;;;22.02;;
57465;SDS011;67033;44.984;20.068;2023-02-28T05:17:30;38.03;;;23.30;;
57465;SDS011;67033;44.984;20.068;2023-02-28T05:19:56;38.13;;;22.25;;
57465;SDS011;67033;44.984;20.068;2023-02-28T05:22:23;41.40;;;23.73;;
57465;SDS011;67033;44.984;20.068;2023-02-28T05:24:49;46.38;;;24.15;;
57465;SDS011;67033;44.984;20.068;2023-02-28T05:27:15;51.03;;;25.33;;
57465;SDS011;67033;44.984;20.068;2023-02-28T05:29:42;49.28;;;24.88;;
57465;SDS011;67033;44.984;20.068;2023-02-28T05:32:11;42.22;;;23.77;;
57465;SDS011;67033;44.984;20.068;2023-02-28T05:34:38;48.72;;;24.27;;
57465;SDS011;67033;44.984;20.068;2023-02-28T05:37:04;36.78;;;22.15;;
57465;SDS011;67033;44.984;20.068;2023-02-28T05:39:32;34.30;;;20.83;;
57465;SDS011;67033;44.984;20.068;2023-02-28T05:41:58;36.67;;;20.70;;
57465;SDS011;67033;44.984;20.068;2023-02-28T05:44:24;33.67;;;21.33;;
57465;SDS011;67033;44.984;20.068;2023-02-28T05:46:51;36.75;;;22.35;;
57465;SDS011;67033;44.984;20.068;2023-02-28T05:49:17;36.53;;;21.60;;
57465;SDS011;67033;44.984;20.068;2023-02-28T05:51:43;35.25;;;21.75;;
57465;SDS011;67033;44.984;20.068;2023-02-28T05:54:09;35.67;;;21.75;;
57465;SDS011;67033;44.984;20.068;2023-02-28T05:56:36;35.45;;;21.85;;
57465;SDS011;67033;44.984;20.068;2023-02-28T05:59:05;32.65;;;22.02;;
57465;SDS011;67033;44.984;20.068;2023-02-28T06:01:35;34.78;;;21.50;;
57465;SDS011;67033;44.984;20.068;2023-02-28T06:04:02;31.70;;;21.02;;
57465;SDS011;67033;44.984;20.068;2023-02-28T06:06:29;34.78;;;22.15;;
57465;SDS011;67033;44.984;20.068;2023-02-28T06:08:56;35.75;;;21.80;;
57465;SDS011;67033;44.984;20.068;2023-02-28T06:11:22;33.90;;;20.60;;
57465;SDS011;67033;44.984;20.068;2023-02-28T06:13:55;35.30;;;23.00;;
57465;SDS011;67033;44.984;20.068;2023-02-28T06:16:22;35.90;;;22.00;;
57465;SDS011;67033;44.984;20.068;2023-02-28T06:18:48;38.78;;;22.10;;
57465;SDS011;67033;44.984;20.068;2023-02-28T06:21:15;32.50;;;20.80;;
57465;SDS011;67033;44.984;20.068;2023-02-28T06:23:41;32.05;;;20.45;;
57465;SDS011;67033;44.984;20.068;2023-02-28T06:26:07;32.70;;;21.55;;
57465;SDS011;67033;44.984;20.068;2023-02-28T06:28:33;33.03;;;20.13;;
57465;SDS011;67033;44.984;20.068;2023-02-28T06:31:04;33.78;;;20.23;;
57465;SDS011;67033;44.984;20.068;2023-02-28T06:33:31;31.55;;;20.38;;
57465;SDS011;67033;44.984;20.068;2023-02-28T06:35:57;37.15;;;20.48;;
57465;SDS011;67033;44.984;20.068;2023-02-28T06:38:23;40.38;;;23.05;;
57465;SDS011;67033;44.984;20.068;2023-02-28T06:40:53;35.83;;;21.13;;
57465;SDS011;67033;44.984;20.068;2023-02-28T06:43:19;35.38;;;20.40;;
57465;SDS011;67033;44.984;20.068;2023-02-28T06:45:45;31.02;;;19.17;;
57465;SDS011;67033;44.984;20.068;2023-02-28T06:48:12;36.17;;;20.13;;
57465;SDS011;67033;44.984;20.068;2023-02-28T06:50:38;36.50;;;19.85;;
57465;SDS011;67033;44.984;20.068;2023-02-28T06:53:04;35.30;;;20.42;;
57465;SDS011;67033;44.984;20.068;2023-02-28T06:55:30;29.02;;;18.27;;
57465;SDS011;67033;44.984;20.068;2023-02-28T06:57:57;32.30;;;19.02;;
57465;SDS011;67033;44.984;20.068;2023-02-28T07:00:23;30.08;;;18.73;;
57465;SDS011;67033;44.984;20.068;2023-02-28T07:02:50;34.72;;;19.15;;
57465;SDS011;67033;44.984;20.068;2023-02-28T07:05:16;31.33;;;18.77;;
57465;SDS011;67033;44.984;20.068;2023-02-28T07:07:42;37.03;;;19.80;;
57465;SDS011;67033;44.984;20.068;2023-02-28T07:10:11;30.63;;;18.73;;
57465;SDS011;67033;44.984;20.068;2023-02-28T07:12:38;42.20;;;20.42;;
57465;SDS011;67033;44.984;20.068;2023-02-28T07:15:04;35.08;;;18.13;;
57465;SDS011;67033;44.984;20.068;2023-02-28T07:17:31;32.05;;;17.75;;
57465;SDS011;67033;44.984;20.068;2023-02-28T07:19:57;25.77;;;17.48;;
57465;SDS011;67033;44.984;20.068;2023-02-28T07:22:23;29.80;;;17.35;;
57465;SDS011;67033;44.984;20.068;2023-02-28T07:24:50;34.75;;;17.95;;
57465;SDS011;67033;44.984;20.068;2023-02-28T07:27:16;31.52;;;18.40;;
57465;SDS011;67033;44.984;20.068;2023-02-28T07:29:49;29.55;;;18.60;;
57465;SDS011;67033;44.984;20.068;2023-02-28T07:32:15;30.77;;;17.00;;
57465;SDS011;67033;44.984;20.068;2023-02-28T07:34:41;22.75;;;16.05;;
57465;SDS011;67033;44.984;20.068;2023-02-28T07:37:08;22.25;;;15.80;;
57465;SDS011;67033;44.984;20.068;2023-02-28T07:39:34;24.45;;;15.98;;
57465;SDS011;67033;44.984;20.068;2023-02-28T07:42:00;22.63;;;15.60;;
57465;SDS011;67033;44.984;20.068;2023-02-28T07:44:29;24.35;;;15.63;;
57465;SDS011;67033;44.984;20.068;2023-02-28T07:46:55;22.35;;;14.45;;
57465;SDS011;67033;44.984;20.068;2023-02-28T07:49:22;23.88;;;16.13;;
57465;SDS011;67033;44.984;20.068;2023-02-28T07:51:48;24.65;;;15.40;;
57465;SDS011;67033;44.984;20.068;2023-02-28T07:54:14;23.48;;;14.80;;
57465;SDS011;67033;44.984;20.068;2023-02-28T07:56:40;22.85;;;15.23;;
57465;SDS011;67033;44.984;20.068;2023-02-28T07:59:06;23.92;;;15.63;;
57465;SDS011;67033;44.984;20.068;2023-02-28T08:01:32;24.02;;;14.93;;
57465;SDS011;67033;44.984;20.068;2023-02-28T08:03:59;24.38;;;15.30;;
57465;SDS011;67033;44.984;20.068;2023-02-28T08:06:25;24.15;;;17.00;;
57465;SDS011;67033;44.984;20.068;2023-02-28T08:08:52;32.15;;;17.02;;
57465;SDS011;67033;44.984;20.068;2023-02-28T08:11:18;33.17;;;17.92;;
57465;SDS011;67033;44.984;20.068;2023-02-28T08:13:45;21.60;;;15.50;;
57465;SDS011;67033;44.984;20.068;2023-02-28T08:16:12;26.40;;;16.33;;
57465;SDS011;67033;44.984;20.068;2023-02-28T08:18:46;25.58;;;16.75;;
57465;SDS011;67033;44.984;20.068;2023-02-28T08:21:13;26.35;;;17.05;;
57465;SDS011;67033;44.984;20.068;2023-02-28T08:23:39;25.10;;;16.80;;
57465;SDS011;67033;44.984;20.068;2023-02-28T08:26:05;27.40;;;17.20;;
57465;SDS011;67033;44.984;20.068;2023-02-28T08:28:32;28.45;;;17.65;;
57465;SDS011;67033;44.984;20.068;2023-02-28T08:30:58;32.53;;;18.77;;
57465;SDS011;67033;44.984;20.068;2023-02-28T08:33:25;30.40;;;18.73;;
57465;SDS011;67033;44.984;20.068;2023-02-28T08:35:55;28.38;;;18.23;;
57465;SDS011;67033;44.984;20.068;2023-02-28T08:38:21;28.00;;;16.83;;
57465;SDS011;67033;44.984;20.068;2023-02-28T08:40:48;27.98;;;17.65;;
57465;SDS011;67033;44.984;20.068;2023-02-28T08:43:14;27.02;;;19.27;;
57465;SDS011;67033;44.984;20.068;2023-02-28T08:45:40;27.27;;;18.13;;
57465;SDS011;67033;44.984;20.068;2023-02-28T08:48:06;26.65;;;18.85;;
57465;SDS011;67033;44.984;20.068;2023-02-28T08:50:32;29.92;;;20.25;;
57465;SDS011;67033;44.984;20.068;2023-02-28T08:52:58;30.73;;;19.73;;
57465;SDS011;67033;44.984;20.068;2023-02-28T08:55:25;31.30;;;20.63;;
57465;SDS011;67033;44.984;20.068;2023-02-28T08:57:51;28.33;;;18.38;;
57465;SDS011;67033;44.984;20.068;2023-02-28T09:00:17;30.33;;;18.75;;
57465;SDS011;67033;44.984;20.068;2023-02-28T09:02:43;31.48;;;20.33;;
57465;SDS011;67033;44.984;20.068;2023-02-28T09:05:10;29.85;;;18.80;;
57465;SDS011;67033;44.984;20.068;2023-02-28T09:07:36;31.52;;;18.15;;
57465;SDS011;67033;44.984;20.068;2023-02-28T09:10:02;29.05;;;18.50;;
57465;SDS011;67033;44.984;20.068;2023-02-28T09:12:32;29.20;;;20.17;;
57465;SDS011;67033;44.984;20.068;2023-02-28T09:14:58;26.95;;;17.23;;
57465;SDS011;67033;44.984;20.068;2023-02-28T09:17:25;28.10;;;17.70;;
57465;SDS011;67033;44.984;20.068;2023-02-28T09:19:51;29.35;;;17.88;;
57465;SDS011;67033;44.984;20.068;2023-02-28T09:22:17;34.28;;;19.73;;
57465;SDS011;67033;44.984;20.068;2023-02-28T09:24:43;25.90;;;17.67;;
57465;SDS011;67033;44.984;20.068;2023-02-28T09:27:10;26.77;;;18.23;;
57465;SDS011;67033;44.984;20.068;2023-02-28T09:29:36;31.27;;;18.20;;
57465;SDS011;67033;44.984;20.068;2023-02-28T09:32:02;29.08;;;18.45;;
57465;SDS011;67033;44.984;20.068;2023-02-28T09:34:30;25.75;;;16.38;;
57465;SDS011;67033;44.984;20.068;2023-02-28T09:36:56;26.60;;;16.83;;
57465;SDS011;67033;44.984;20.068;2023-02-28T09:39:23;35.78;;;18.48;;
57465;SDS011;67033;44.984;20.068;2023-02-28T09:41:52;36.35;;;19.83;;
57465;SDS011;67033;44.984;20.068;2023-02-28T09:47:00;26.92;;;17.60;;
57465;SDS011;67033;44.984;20.068;2023-02-28T09:49:48;27.70;;;16.40;;
57465;SDS011;67033;44.984;20.068;2023-02-28T09:52:15;24.10;;;16.08;;
57465;SDS011;67033;44.984;20.068;2023-02-28T09:54:42;26.67;;;16.37;;
57465;SDS011;67033;44.984;20.068;2023-02-28T09:57:41;27.90;;;17.95;;
57465;SDS011;67033;44.984;20.068;2023-02-28T10:00:03;23.02;;;15.00;;
57465;SDS011;67033;44.984;20.068;2023-02-28T10:05:05;26.15;;;16.48;;
57465;SDS011;67033;44.984;20.068;2023-02-28T10:07:41;28.02;;;18.67;;
57465;SDS011;67033;44.984;20.068;2023-02-28T10:10:17;27.38;;;16.55;;
57465;SDS011;67033;44.984;20.068;2023-02-28T10:12:44;27.63;;;18.23;;
57465;SDS011;67033;44.984;20.068;2023-02-28T10:15:14;25.48;;;16.70;;
57465;SDS011;67033;44.984;20.068;2023-02-28T10:17:41;26.95;;;16.17;;
57465;SDS011;67033;44.984;20.068;2023-02-28T10:20:12;23.70;;;16.40;;
57465;SDS011;67033;44.984;20.068;2023-02-28T10:25:21;22.95;;;16.25;;
57465;SDS011;67033;44.984;20.068;2023-02-28T10:27:48;20.40;;;15.60;;
57465;SDS011;67033;44.984;20.068;2023-02-28T10:30:15;25.70;;;15.50;;
57465;SDS011;67033;44.984;20.068;2023-02-28T10:32:44;23.50;;;15.52;;
57465;SDS011;67033;44.984;20.068;2023-02-28T10:35:16;23.20;;;16.10;;
57465;SDS011;67033;44.984;20.068;2023-02-28T10:37:47;24.02;;;16.55;;
57465;SDS011;67033;44.984;20.068;2023-02-28T10:40:34;22.70;;;15.77;;
57465;SDS011;67033;44.984;20.068;2023-02-28T10:45:29;48.30;;;22.38;;
57465;SDS011;67033;44.984;20.068;2023-02-28T10:50:46;24.95;;;17.20;;
57465;SDS011;67033;44.984;20.068;2023-02-28T11:01:22;21.45;;;14.00;;
57465;SDS011;67033;44.984;20.068;2023-02-28T11:03:49;22.17;;;15.82;;
57465;SDS011;67033;44.984;20.068;2023-02-28T11:06:22;24.52;;;17.00;;
57465;SDS011;67033;44.984;20.068;2023-02-28T11:08:50;26.20;;;16.88;;
57465;SDS011;67033;44.984;20.068;2023-02-28T11:11:17;22.50;;;16.38;;
57465;SDS011;67033;44.984;20.068;2023-02-28T11:13:45;22.40;;;15.30;;
57465;SDS011;67033;44.984;20.068;2023-02-28T11:16:12;26.55;;;17.42;;
57465;SDS011;67033;44.984;20.068;2023-02-28T11:18:41;24.70;;;17.67;;
57465;SDS011;67033;44.984;20.068;2023-02-28T11:21:08;22.90;;;15.55;;
57465;SDS011;67033;44.984;20.068;2023-02-28T11:23:35;21.88;;;14.25;;
57465;SDS011;67033;44.984;20.068;2023-02-28T11:26:02;25.45;;;15.85;;
57465;SDS011;67033;44.984;20.068;2023-02-28T11:28:37;20.73;;;15.27;;
57465;SDS011;67033;44.984;20.068;2023-02-28T11:33:40;23.92;;;16.65;;
57465;SDS011;67033;44.984;20.068;2023-02-28T11:36:11;25.50;;;16.25;;
57465;SDS011;67033;44.984;20.068;2023-02-28T11:38:37;23.48;;;15.90;;
57465;SDS011;67033;44.984;20.068;2023-02-28T11:43:35;20.85;;;15.02;;
57465;SDS011;67033;44.984;20.068;2023-02-28T11:46:12;21.83;;;15.43;;
57465;SDS011;67033;44.984;20.068;2023-02-28T11:53:44;25.88;;;18.30;;
57465;SDS011;67033;44.984;20.068;2023-02-28T12:01:21;30.05;;;19.35;;
57465;SDS011;67033;44.984;20.068;2023-02-28T12:04:33;28.48;;;20.02;;
57465;SDS011;67033;44.984;20.068;2023-02-28T12:09:33;27.55;;;17.50;;
57465;SDS011;67033;44.984;20.068;2023-02-28T12:11:56;22.67;;;14.45;;
57465;SDS011;67033;44.984;20.068;2023-02-28T12:27:39;40.20;;;22.80;;
57465;SDS011;67033;44.984;20.068;2023-02-28T12:30:13;133.02;;;34.97;;
57465;SDS011;67033;44.984;20.068;2023-02-28T12:33:16;286.83;;;71.25;;
57465;SDS011;67033;44.984;20.068;2023-02-28T12:43:30;35.20;;;22.35;;
57465;SDS011;67033;44.984;20.068;2023-02-28T12:46:08;28.13;;;17.90;;
57465;SDS011;67033;44.984;20.068;2023-02-28T12:48:46;27.92;;;18.35;;
57465;SDS011;67033;44.984;20.068;2023-02-28T12:51:13;29.92;;;19.30;;
57465;SDS011;67033;44.984;20.068;2023-02-28T12:56:18;37.13;;;24.30;;
57465;SDS011;67033;44.984;20.068;2023-02-28T12:58:47;39.67;;;23.13;;
57465;SDS011;67033;44.984;20.068;2023-02-28T13:09:25;33.13;;;20.13;;
57465;SDS011;67033;44.984;20.068;2023-02-28T13:11:54;35.37;;;22.83;;
57465;SDS011;67033;44.984;20.068;2023-02-28T13:19:31;33.58;;;22.05;;
57465;SDS011;67033;44.984;20.068;2023-02-28T13:21:58;40.38;;;25.05;;
57465;SDS011;67033;44.984;20.068;2023-02-28T13:24:38;35.50;;;22.02;;
57465;SDS011;67033;44.984;20.068;2023-02-28T13:34:36;31.15;;;22.90;;
57465;SDS011;67033;44.984;20.068;2023-02-28T13:39:48;40.90;;;26.98;;
57465;SDS011;67033;44.984;20.068;2023-02-28T13:47:29;46.92;;;27.95;;
57465;SDS011;67033;44.984;20.068;2023-02-28T13:52:56;31.98;;;20.42;;
57465;SDS011;67033;44.984;20.068;2023-02-28T13:55:28;30.83;;;20.25;;
57465;SDS011;67033;44.984;20.068;2023-02-28T14:03:07;34.20;;;20.45;;
57465;SDS011;67033;44.984;20.068;2023-02-28T14:05:37;31.42;;;20.52;;
57465;SDS011;67033;44.984;20.068;2023-02-28T14:08:08;33.95;;;22.13;;
57465;SDS011;67033;44.984;20.068;2023-02-28T14:10:42;63.90;;;33.83;;
57465;SDS011;67033;44.984;20.068;2023-02-28T14:15:49;86.72;;;38.58;;
57465;SDS011;67033;44.984;20.068;2023-02-28T14:18:31;118.18;;;61.97;;
57465;SDS011;67033;44.984;20.068;2023-02-28T14:21:01;89.57;;;47.67;;
57465;SDS011;67033;44.984;20.068;2023-02-28T14:26:10;55.15;;;28.02;;
57465;SDS011;67033;44.984;20.068;2023-02-28T14:31:34;58.03;;;31.52;;
57465;SDS011;67033;44.984;20.068;2023-02-28T14:36:37;149.27;;;75.35;;
57465;SDS011;67033;44.984;20.068;2023-02-28T14:39:10;49.33;;;29.35;;
57465;SDS011;67033;44.984;20.068;2023-02-28T14:41:38;42.10;;;25.15;;
57465;SDS011;67033;44.984;20.068;2023-02-28T14:44:24;48.97;;;26.55;;
57465;SDS011;67033;44.984;20.068;2023-02-28T14:46:52;36.05;;;22.45;;
57465;SDS011;67033;44.984;20.068;2023-02-28T14:49:26;35.10;;;23.45;;
57465;SDS011;67033;44.984;20.068;2023-02-28T14:54:38;32.40;;;20.25;;
57465;SDS011;67033;44.984;20.068;2023-02-28T14:57:05;31.35;;;19.83;;
57465;SDS011;67033;44.984;20.068;2023-02-28T14:59:32;36.78;;;21.42;;
57465;SDS011;67033;44.984;20.068;2023-02-28T15:04:44;32.95;;;18.02;;
57465;SDS011;67033;44.984;20.068;2023-02-28T15:07:17;34.83;;;20.00;;
57465;SDS011;67033;44.984;20.068;2023-02-28T15:09:44;51.38;;;26.10;;
57465;SDS011;67033;44.984;20.068;2023-02-28T15:12:13;44.75;;;22.92;;
57465;SDS011;67033;44.984;20.068;2023-02-28T15:14:41;40.95;;;21.27;;
57465;SDS011;67033;44.984;20.068;2023-02-28T15:17:09;23.08;;;14.45;;
57465;SDS011;67033;44.984;20.068;2023-02-28T15:19:39;35.58;;;18.38;;
57465;SDS011;67033;44.984;20.068;2023-02-28T15:22:10;31.27;;;16.95;;
57465;SDS011;67033;44.984;20.068;2023-02-28T15:24:41;69.53;;;28.98;;
57465;SDS011;67033;44.984;20.068;2023-02-28T15:27:11;173.18;;;51.60;;
57465;SDS011;67033;44.984;20.068;2023-02-28T15:29:43;76.20;;;28.42;;
57465;SDS011;67033;44.984;20.068;2023-02-28T15:32:32;182.63;;;55.75;;
57465;SDS011;67033;44.984;20.068;2023-02-28T15:34:58;224.45;;;73.50;;
57465;SDS011;67033;44.984;20.068;2023-02-28T15:37:26;200.82;;;66.25;;
57465;SDS011;67033;44.984;20.068;2023-02-28T15:39:55;42.60;;;21.77;;
57465;SDS011;67033;44.984;20.068;2023-02-28T15:42:23;100.93;;;42.80;;
57465;SDS011;67033;44.984;20.068;2023-02-28T15:44:53;145.80;;;67.65;;
57465;SDS011;67033;44.984;20.068;2023-02-28T15:47:20;65.85;;;33.95;;
57465;SDS011;67033;44.984;20.068;2023-02-28T15:49:54;28.45;;;18.95;;
57465;SDS011;67033;44.984;20.068;2023-02-28T15:52:22;23.30;;;14.82;;
57465;SDS011;67033;44.984;20.068;2023-02-28T15:54:50;22.23;;;15.02;;
57465;SDS011;67033;44.984;20.068;2023-02-28T15:57:21;20.05;;;14.25;;
57465;SDS011;67033;44.984;20.068;2023-02-28T15:59:49;25.05;;;16.25;;
57465;SDS011;67033;44.984;20.068;2023-02-28T16:02:18;23.60;;;15.15;;
57465;SDS011;67033;44.984;20.068;2023-02-28T16:07:30;27.05;;;17.85;;
57465;SDS011;67033;44.984;20.068;2023-02-28T16:09:56;28.55;;;19.23;;
57465;SDS011;67033;44.984;20.068;2023-02-28T16:12:27;28.45;;;18.02;;
57465;SDS011;67033;44.984;20.068;2023-02-28T16:14:54;30.17;;;16.50;;
57465;SDS011;67033;44.984;20.068;2023-02-28T16:17:22;27.10;;;17.15;;
57465;SDS011;67033;44.984;20.068;2023-02-28T16:19:48;26.55;;;16.48;;
57465;SDS011;67033;44.984;20.068;2023-02-28T16:22:15;26.08;;;18.20;;
57465;SDS011;67033;44.984;20.068;2023-02-28T16:24:41;40.70;;;26.50;;
57465;SDS011;67033;44.984;20.068;2023-02-28T16:27:10;33.42;;;21.48;;
57465;SDS011;67033;44.984;20.068;2023-02-28T16:29:41;35.85;;;22.15;;
57465;SDS011;67033;44.984;20.068;2023-02-28T16:32:07;32.10;;;20.83;;
57465;SDS011;67033;44.984;20.068;2023-02-28T16:34:33;29.70;;;19.17;;
57465;SDS011;67033;44.984;20.068;2023-02-28T16:36:59;28.23;;;18.15;;
57465;SDS011;67033;44.984;20.068;2023-02-28T16:39:26;29.70;;;17.27;;
57465;SDS011;67033;44.984;20.068;2023-02-28T16:41:52;30.92;;;18.08;;
57465;SDS011;67033;44.984;20.068;2023-02-28T16:44:32;35.28;;;21.45;;
57465;SDS011;67033;44.984;20.068;2023-02-28T16:46:59;39.72;;;22.20;;
57465;SDS011;67033;44.984;20.068;2023-02-28T16:49:26;39.63;;;22.75;;
57465;SDS011;67033;44.984;20.068;2023-02-28T16:51:52;62.47;;;33.00;;